Portada
METAR-TAF:

METAR-TAF

Aeroports :

Sialkot, Pakistan

latitud: 32-32N, longitud: 74-22E, altitud: 255 m

Observació

L'informe es va fer fa 33 minuts, a les 05:00 UTC
Vent calma
Temperatura 24°C
Humitat 61%
Pressió 1017 hPa
Visibilitat: 6000 m

METAR: OPST 210500Z 00000KT 6000 NSC 24/16 Q1017 NOSIG RH63

Hora: 10:33 (05:33 UTC)


TAF: manca

Observacions i pronòstics meteorològics de més de 4000 aeroports (METAR i TAF).

Les estacions disponibles són els punts grocs i vermells al mapa.

Posi el ratolí al punt desitjat per veure el nom de l'estació.

Feu clic per veure les observacions i els pronòstics meteorològics.

Per canviar el mapa: feu clic els botons verds amb una creu de color negre per apropar; al botó verd amb un guió per allunyar la imatge; o en les fletxes verdes per a mapes adjacents.


METAR-TAF: